sensor_id;sensor_type;location;lat;lon;timestamp;P1;durP1;ratioP1;P2;durP2;ratioP2
5507;SDS011;2776;51.046;6.772;2022-07-11T00:00:47;3.57;;;2.30;;
5507;SDS011;2776;51.046;6.772;2022-07-11T00:03:15;2.77;;;2.17;;
5507;SDS011;2776;51.046;6.772;2022-07-11T00:05:42;2.43;;;2.20;;
5507;SDS011;2776;51.046;6.772;2022-07-11T00:08:09;4.60;;;2.10;;
5507;SDS011;2776;51.046;6.772;2022-07-11T00:10:36;5.13;;;2.70;;
5507;SDS011;2776;51.046;6.772;2022-07-11T00:13:03;4.90;;;2.40;;
5507;SDS011;2776;51.046;6.772;2022-07-11T00:15:29;3.73;;;2.70;;
5507;SDS011;2776;51.046;6.772;2022-07-11T00:17:56;4.73;;;4.30;;
5507;SDS011;2776;51.046;6.772;2022-07-11T00:20:24;10.37;;;7.13;;
5507;SDS011;2776;51.046;6.772;2022-07-11T00:22:51;4.37;;;2.53;;
5507;SDS011;2776;51.046;6.772;2022-07-11T00:25:18;5.47;;;2.90;;
5507;SDS011;2776;51.046;6.772;2022-07-11T00:27:45;4.03;;;2.20;;
5507;SDS011;2776;51.046;6.772;2022-07-11T00:30:12;4.23;;;2.10;;
5507;SDS011;2776;51.046;6.772;2022-07-11T00:32:38;3.00;;;2.40;;
5507;SDS011;2776;51.046;6.772;2022-07-11T00:35:06;3.63;;;2.00;;
5507;SDS011;2776;51.046;6.772;2022-07-11T00:37:34;3.10;;;2.20;;
5507;SDS011;2776;51.046;6.772;2022-07-11T00:40:01;3.87;;;2.10;;
5507;SDS011;2776;51.046;6.772;2022-07-11T00:42:28;6.20;;;2.40;;
5507;SDS011;2776;51.046;6.772;2022-07-11T00:44:55;3.43;;;2.67;;
5507;SDS011;2776;51.046;6.772;2022-07-11T00:47:22;4.87;;;2.37;;
5507;SDS011;2776;51.046;6.772;2022-07-11T00:49:49;4.33;;;2.47;;
5507;SDS011;2776;51.046;6.772;2022-07-11T00:52:15;4.60;;;2.37;;
5507;SDS011;2776;51.046;6.772;2022-07-11T00:54:44;5.00;;;2.83;;
5507;SDS011;2776;51.046;6.772;2022-07-11T00:57:11;5.93;;;2.60;;
5507;SDS011;2776;51.046;6.772;2022-07-11T00:59:38;3.97;;;2.50;;
5507;SDS011;2776;51.046;6.772;2022-07-11T01:02:05;2.57;;;2.37;;
5507;SDS011;2776;51.046;6.772;2022-07-11T01:04:32;4.20;;;2.57;;
5507;SDS011;2776;51.046;6.772;2022-07-11T01:06:59;6.03;;;3.03;;
5507;SDS011;2776;51.046;6.772;2022-07-11T01:09:26;4.67;;;2.70;;
5507;SDS011;2776;51.046;6.772;2022-07-11T01:11:54;5.13;;;2.93;;
5507;SDS011;2776;51.046;6.772;2022-07-11T01:14:23;7.30;;;2.90;;
5507;SDS011;2776;51.046;6.772;2022-07-11T01:16:49;6.90;;;2.97;;
5507;SDS011;2776;51.046;6.772;2022-07-11T01:19:17;4.83;;;2.77;;
5507;SDS011;2776;51.046;6.772;2022-07-11T01:21:45;4.73;;;3.07;;
5507;SDS011;2776;51.046;6.772;2022-07-11T01:24:16;5.00;;;2.70;;
5507;SDS011;2776;51.046;6.772;2022-07-11T01:26:44;3.60;;;2.70;;
5507;SDS011;2776;51.046;6.772;2022-07-11T01:29:13;5.43;;;3.07;;
5507;SDS011;2776;51.046;6.772;2022-07-11T01:31:41;4.90;;;3.00;;
5507;SDS011;2776;51.046;6.772;2022-07-11T01:34:08;5.57;;;3.03;;
5507;SDS011;2776;51.046;6.772;2022-07-11T01:36:35;3.30;;;3.00;;
5507;SDS011;2776;51.046;6.772;2022-07-11T01:39:02;3.90;;;3.03;;
5507;SDS011;2776;51.046;6.772;2022-07-11T01:41:31;5.13;;;3.57;;
5507;SDS011;2776;51.046;6.772;2022-07-11T01:43:57;4.30;;;3.47;;
5507;SDS011;2776;51.046;6.772;2022-07-11T01:46:24;5.10;;;3.20;;
5507;SDS011;2776;51.046;6.772;2022-07-11T01:48:51;7.73;;;3.60;;
5507;SDS011;2776;51.046;6.772;2022-07-11T01:51:18;7.53;;;3.87;;
5507;SDS011;2776;51.046;6.772;2022-07-11T01:53:45;4.90;;;3.77;;
5507;SDS011;2776;51.046;6.772;2022-07-11T01:56:11;7.77;;;3.57;;
5507;SDS011;2776;51.046;6.772;2022-07-11T01:58:39;5.00;;;3.40;;
5507;SDS011;2776;51.046;6.772;2022-07-11T02:01:06;4.43;;;3.37;;
5507;SDS011;2776;51.046;6.772;2022-07-11T02:03:33;5.03;;;3.57;;
5507;SDS011;2776;51.046;6.772;2022-07-11T02:06:00;5.37;;;3.87;;
5507;SDS011;2776;51.046;6.772;2022-07-11T02:08:26;6.83;;;4.00;;
5507;SDS011;2776;51.046;6.772;2022-07-11T02:10:53;6.13;;;4.13;;
5507;SDS011;2776;51.046;6.772;2022-07-11T02:13:21;7.50;;;4.10;;
5507;SDS011;2776;51.046;6.772;2022-07-11T02:15:50;7.50;;;3.80;;
5507;SDS011;2776;51.046;6.772;2022-07-11T02:18:18;8.57;;;4.10;;
5507;SDS011;2776;51.046;6.772;2022-07-11T02:20:45;8.87;;;4.07;;
5507;SDS011;2776;51.046;6.772;2022-07-11T02:23:14;5.13;;;3.97;;
5507;SDS011;2776;51.046;6.772;2022-07-11T02:25:41;6.17;;;3.77;;
5507;SDS011;2776;51.046;6.772;2022-07-11T02:28:08;7.10;;;4.23;;
5507;SDS011;2776;51.046;6.772;2022-07-11T02:30:35;7.10;;;4.50;;
5507;SDS011;2776;51.046;6.772;2022-07-11T02:33:03;10.93;;;4.60;;
5507;SDS011;2776;51.046;6.772;2022-07-11T02:35:32;6.00;;;4.60;;
5507;SDS011;2776;51.046;6.772;2022-07-11T02:38:00;5.93;;;4.40;;
5507;SDS011;2776;51.046;6.772;2022-07-11T02:40:27;6.73;;;4.80;;
5507;SDS011;2776;51.046;6.772;2022-07-11T02:42:54;5.27;;;4.60;;
5507;SDS011;2776;51.046;6.772;2022-07-11T02:45:21;6.73;;;4.10;;
5507;SDS011;2776;51.046;6.772;2022-07-11T02:47:48;9.13;;;4.13;;
5507;SDS011;2776;51.046;6.772;2022-07-11T02:50:16;8.40;;;4.60;;
5507;SDS011;2776;51.046;6.772;2022-07-11T02:52:43;5.73;;;4.30;;
5507;SDS011;2776;51.046;6.772;2022-07-11T02:55:10;8.10;;;4.63;;
5507;SDS011;2776;51.046;6.772;2022-07-11T02:57:38;5.37;;;4.70;;
5507;SDS011;2776;51.046;6.772;2022-07-11T03:00:06;5.50;;;4.57;;
5507;SDS011;2776;51.046;6.772;2022-07-11T03:02:35;7.30;;;4.60;;
5507;SDS011;2776;51.046;6.772;2022-07-11T03:05:02;7.83;;;5.17;;
5507;SDS011;2776;51.046;6.772;2022-07-11T03:07:30;5.67;;;4.73;;
5507;SDS011;2776;51.046;6.772;2022-07-11T03:09:57;6.97;;;5.13;;
5507;SDS011;2776;51.046;6.772;2022-07-11T03:12:24;5.37;;;4.73;;
5507;SDS011;2776;51.046;6.772;2022-07-11T03:14:50;9.50;;;5.40;;
5507;SDS011;2776;51.046;6.772;2022-07-11T03:17:17;7.87;;;5.27;;
5507;SDS011;2776;51.046;6.772;2022-07-11T03:19:45;7.07;;;4.47;;
5507;SDS011;2776;51.046;6.772;2022-07-11T03:22:12;8.27;;;4.70;;
5507;SDS011;2776;51.046;6.772;2022-07-11T03:24:41;9.27;;;4.80;;
5507;SDS011;2776;51.046;6.772;2022-07-11T03:27:08;8.17;;;5.30;;
5507;SDS011;2776;51.046;6.772;2022-07-11T03:29:35;6.77;;;5.03;;
5507;SDS011;2776;51.046;6.772;2022-07-11T03:32:02;7.63;;;4.80;;
5507;SDS011;2776;51.046;6.772;2022-07-11T03:34:30;9.43;;;5.37;;
5507;SDS011;2776;51.046;6.772;2022-07-11T03:36:56;7.27;;;5.13;;
5507;SDS011;2776;51.046;6.772;2022-07-11T03:39:23;7.90;;;5.40;;
5507;SDS011;2776;51.046;6.772;2022-07-11T03:41:51;8.53;;;5.63;;
5507;SDS011;2776;51.046;6.772;2022-07-11T03:44:18;5.40;;;4.73;;
5507;SDS011;2776;51.046;6.772;2022-07-11T03:46:45;8.67;;;5.33;;
5507;SDS011;2776;51.046;6.772;2022-07-11T03:49:13;7.23;;;5.97;;
5507;SDS011;2776;51.046;6.772;2022-07-11T03:51:39;8.63;;;5.13;;
5507;SDS011;2776;51.046;6.772;2022-07-11T03:54:06;5.67;;;5.00;;
5507;SDS011;2776;51.046;6.772;2022-07-11T03:56:33;6.10;;;4.90;;
5507;SDS011;2776;51.046;6.772;2022-07-11T03:59:01;6.27;;;5.20;;
5507;SDS011;2776;51.046;6.772;2022-07-11T04:01:28;6.23;;;4.97;;
5507;SDS011;2776;51.046;6.772;2022-07-11T04:03:55;6.00;;;5.30;;
5507;SDS011;2776;51.046;6.772;2022-07-11T04:06:21;8.57;;;4.87;;
5507;SDS011;2776;51.046;6.772;2022-07-11T04:08:48;6.30;;;5.20;;
5507;SDS011;2776;51.046;6.772;2022-07-11T04:11:15;6.43;;;5.23;;
5507;SDS011;2776;51.046;6.772;2022-07-11T04:13:42;6.93;;;5.23;;
5507;SDS011;2776;51.046;6.772;2022-07-11T04:16:10;5.60;;;4.50;;
5507;SDS011;2776;51.046;6.772;2022-07-11T04:18:37;9.37;;;4.90;;
5507;SDS011;2776;51.046;6.772;2022-07-11T04:21:04;6.07;;;5.10;;
5507;SDS011;2776;51.046;6.772;2022-07-11T04:23:31;7.90;;;4.93;;
5507;SDS011;2776;51.046;6.772;2022-07-11T04:25:57;8.07;;;5.00;;
5507;SDS011;2776;51.046;6.772;2022-07-11T04:28:24;7.27;;;4.60;;
5507;SDS011;2776;51.046;6.772;2022-07-11T04:30:51;5.13;;;4.63;;
5507;SDS011;2776;51.046;6.772;2022-07-11T04:33:19;8.47;;;5.50;;
5507;SDS011;2776;51.046;6.772;2022-07-11T04:35:46;6.23;;;5.20;;
5507;SDS011;2776;51.046;6.772;2022-07-11T04:38:13;10.07;;;5.40;;
5507;SDS011;2776;51.046;6.772;2022-07-11T04:40:39;8.70;;;5.17;;
5507;SDS011;2776;51.046;6.772;2022-07-11T04:43:06;5.60;;;4.97;;
5507;SDS011;2776;51.046;6.772;2022-07-11T04:45:33;7.87;;;5.00;;
5507;SDS011;2776;51.046;6.772;2022-07-11T04:48:00;7.60;;;5.07;;
5507;SDS011;2776;51.046;6.772;2022-07-11T04:50:29;6.63;;;5.07;;
5507;SDS011;2776;51.046;6.772;2022-07-11T04:52:55;6.80;;;4.27;;
5507;SDS011;2776;51.046;6.772;2022-07-11T04:55:23;8.73;;;4.57;;
5507;SDS011;2776;51.046;6.772;2022-07-11T04:57:49;8.70;;;4.90;;
5507;SDS011;2776;51.046;6.772;2022-07-11T05:00:17;7.43;;;4.70;;
5507;SDS011;2776;51.046;6.772;2022-07-11T05:02:44;7.43;;;4.73;;
5507;SDS011;2776;51.046;6.772;2022-07-11T05:05:12;4.93;;;4.23;;
5507;SDS011;2776;51.046;6.772;2022-07-11T05:07:40;6.00;;;5.30;;
5507;SDS011;2776;51.046;6.772;2022-07-11T05:10:08;8.83;;;5.17;;
5507;SDS011;2776;51.046;6.772;2022-07-11T05:12:35;8.13;;;6.93;;
5507;SDS011;2776;51.046;6.772;2022-07-11T05:15:01;4.50;;;3.97;;
5507;SDS011;2776;51.046;6.772;2022-07-11T05:17:29;5.03;;;4.50;;
5507;SDS011;2776;51.046;6.772;2022-07-11T05:19:55;5.00;;;3.80;;
5507;SDS011;2776;51.046;6.772;2022-07-11T05:22:22;6.87;;;4.17;;
5507;SDS011;2776;51.046;6.772;2022-07-11T05:24:50;5.40;;;4.27;;
5507;SDS011;2776;51.046;6.772;2022-07-11T05:27:17;5.67;;;3.40;;
5507;SDS011;2776;51.046;6.772;2022-07-11T05:29:44;4.53;;;3.47;;
5507;SDS011;2776;51.046;6.772;2022-07-11T05:32:11;6.17;;;4.10;;
5507;SDS011;2776;51.046;6.772;2022-07-11T05:34:38;10.00;;;5.43;;
5507;SDS011;2776;51.046;6.772;2022-07-11T05:37:04;4.80;;;3.10;;
5507;SDS011;2776;51.046;6.772;2022-07-11T05:39:31;6.93;;;3.43;;
5507;SDS011;2776;51.046;6.772;2022-07-11T05:41:59;5.33;;;3.50;;
5507;SDS011;2776;51.046;6.772;2022-07-11T05:44:26;5.80;;;4.07;;
5507;SDS011;2776;51.046;6.772;2022-07-11T05:46:53;3.70;;;3.30;;
5507;SDS011;2776;51.046;6.772;2022-07-11T05:49:25;5.27;;;3.40;;
5507;SDS011;2776;51.046;6.772;2022-07-11T05:51:51;5.03;;;3.40;;
5507;SDS011;2776;51.046;6.772;2022-07-11T05:54:18;5.43;;;3.03;;
5507;SDS011;2776;51.046;6.772;2022-07-11T05:56:45;6.03;;;3.43;;
5507;SDS011;2776;51.046;6.772;2022-07-11T05:59:13;5.60;;;3.57;;
5507;SDS011;2776;51.046;6.772;2022-07-11T06:01:40;7.47;;;3.60;;
5507;SDS011;2776;51.046;6.772;2022-07-11T06:04:07;5.80;;;3.00;;
5507;SDS011;2776;51.046;6.772;2022-07-11T06:06:33;4.63;;;3.00;;
5507;SDS011;2776;51.046;6.772;2022-07-11T06:09:00;6.27;;;3.00;;
5507;SDS011;2776;51.046;6.772;2022-07-11T06:11:27;4.97;;;2.60;;
5507;SDS011;2776;51.046;6.772;2022-07-11T06:13:54;5.37;;;3.20;;
5507;SDS011;2776;51.046;6.772;2022-07-11T06:16:22;5.60;;;4.20;;
5507;SDS011;2776;51.046;6.772;2022-07-11T06:18:49;4.67;;;3.63;;
5507;SDS011;2776;51.046;6.772;2022-07-11T06:21:17;4.30;;;3.10;;
5507;SDS011;2776;51.046;6.772;2022-07-11T06:23:44;4.33;;;3.60;;
5507;SDS011;2776;51.046;6.772;2022-07-11T06:26:10;5.72;;;3.22;;
5507;SDS011;2776;51.046;6.772;2022-07-11T06:28:38;6.27;;;3.20;;
5507;SDS011;2776;51.046;6.772;2022-07-11T06:31:05;5.22;;;3.42;;
5507;SDS011;2776;51.046;6.772;2022-07-11T06:33:33;4.47;;;3.33;;
5507;SDS011;2776;51.046;6.772;2022-07-11T06:36:00;4.63;;;3.25;;
5507;SDS011;2776;51.046;6.772;2022-07-11T06:38:28;4.75;;;3.15;;
5507;SDS011;2776;51.046;6.772;2022-07-11T06:40:55;3.97;;;3.00;;
5507;SDS011;2776;51.046;6.772;2022-07-11T06:43:22;6.03;;;2.85;;
5507;SDS011;2776;51.046;6.772;2022-07-11T06:45:49;7.32;;;3.65;;
5507;SDS011;2776;51.046;6.772;2022-07-11T06:48:16;6.43;;;3.78;;
5507;SDS011;2776;51.046;6.772;2022-07-11T06:50:47;4.75;;;3.80;;
5507;SDS011;2776;51.046;6.772;2022-07-11T06:53:14;5.65;;;3.80;;
5507;SDS011;2776;51.046;6.772;2022-07-11T06:55:40;4.35;;;3.30;;
5507;SDS011;2776;51.046;6.772;2022-07-11T06:58:07;7.00;;;4.50;;
5507;SDS011;2776;51.046;6.772;2022-07-11T07:00:34;6.23;;;4.20;;
5507;SDS011;2776;51.046;6.772;2022-07-11T07:03:01;8.18;;;4.13;;
5507;SDS011;2776;51.046;6.772;2022-07-11T07:05:28;6.05;;;4.03;;
5507;SDS011;2776;51.046;6.772;2022-07-11T07:07:56;5.40;;;3.83;;
5507;SDS011;2776;51.046;6.772;2022-07-11T07:10:23;7.70;;;4.67;;
5507;SDS011;2776;51.046;6.772;2022-07-11T07:12:50;8.80;;;5.90;;
5507;SDS011;2776;51.046;6.772;2022-07-11T07:15:17;8.50;;;6.10;;
5507;SDS011;2776;51.046;6.772;2022-07-11T07:17:43;5.90;;;5.38;;
5507;SDS011;2776;51.046;6.772;2022-07-11T07:20:10;6.97;;;4.95;;
5507;SDS011;2776;51.046;6.772;2022-07-11T07:22:38;6.55;;;5.88;;
5507;SDS011;2776;51.046;6.772;2022-07-11T07:25:07;7.57;;;5.43;;
5507;SDS011;2776;51.046;6.772;2022-07-11T07:27:35;6.03;;;5.13;;
5507;SDS011;2776;51.046;6.772;2022-07-11T07:30:02;5.72;;;4.88;;
5507;SDS011;2776;51.046;6.772;2022-07-11T07:32:29;5.55;;;5.05;;
5507;SDS011;2776;51.046;6.772;2022-07-11T07:34:56;6.10;;;4.40;;
5507;SDS011;2776;51.046;6.772;2022-07-11T07:37:23;5.50;;;4.53;;
5507;SDS011;2776;51.046;6.772;2022-07-11T07:39:50;4.22;;;3.40;;
5507;SDS011;2776;51.046;6.772;2022-07-11T07:42:18;3.60;;;3.30;;
5507;SDS011;2776;51.046;6.772;2022-07-11T07:44:45;4.03;;;2.97;;
5507;SDS011;2776;51.046;6.772;2022-07-11T07:47:12;5.32;;;3.00;;
5507;SDS011;2776;51.046;6.772;2022-07-11T07:49:39;3.60;;;2.87;;
5507;SDS011;2776;51.046;6.772;2022-07-11T07:52:05;3.58;;;2.58;;
5507;SDS011;2776;51.046;6.772;2022-07-11T07:54:32;3.60;;;2.75;;
5507;SDS011;2776;51.046;6.772;2022-07-11T07:56:59;5.28;;;2.50;;
5507;SDS011;2776;51.046;6.772;2022-07-11T07:59:27;3.38;;;2.13;;
5507;SDS011;2776;51.046;6.772;2022-07-11T08:01:54;3.53;;;2.53;;
5507;SDS011;2776;51.046;6.772;2022-07-11T08:04:20;5.57;;;4.22;;
5507;SDS011;2776;51.046;6.772;2022-07-11T08:06:46;4.47;;;2.80;;
5507;SDS011;2776;51.046;6.772;2022-07-11T08:09:13;5.05;;;2.10;;
5507;SDS011;2776;51.046;6.772;2022-07-11T08:11:40;8.57;;;2.70;;
5507;SDS011;2776;51.046;6.772;2022-07-11T08:14:07;3.38;;;2.20;;
5507;SDS011;2776;51.046;6.772;2022-07-11T08:16:36;4.43;;;2.00;;
5507;SDS011;2776;51.046;6.772;2022-07-11T08:19:04;3.95;;;2.00;;
5507;SDS011;2776;51.046;6.772;2022-07-11T08:21:31;2.67;;;1.70;;
5507;SDS011;2776;51.046;6.772;2022-07-11T08:23:59;4.85;;;1.70;;
5507;SDS011;2776;51.046;6.772;2022-07-11T08:26:26;2.33;;;1.42;;
5507;SDS011;2776;51.046;6.772;2022-07-11T08:28:53;1.92;;;1.83;;
5507;SDS011;2776;51.046;6.772;2022-07-11T08:31:19;2.97;;;1.38;;
5507;SDS011;2776;51.046;6.772;2022-07-11T08:33:48;1.60;;;1.48;;
5507;SDS011;2776;51.046;6.772;2022-07-11T08:36:16;2.67;;;1.60;;
5507;SDS011;2776;51.046;6.772;2022-07-11T08:38:42;2.08;;;1.48;;
5507;SDS011;2776;51.046;6.772;2022-07-11T08:41:11;2.03;;;1.45;;
5507;SDS011;2776;51.046;6.772;2022-07-11T08:43:40;2.53;;;2.03;;
5507;SDS011;2776;51.046;6.772;2022-07-11T08:46:08;2.08;;;1.55;;
5507;SDS011;2776;51.046;6.772;2022-07-11T08:48:37;1.77;;;1.25;;
5507;SDS011;2776;51.046;6.772;2022-07-11T08:51:06;2.80;;;1.60;;
5507;SDS011;2776;51.046;6.772;2022-07-11T08:53:36;2.53;;;1.30;;
5507;SDS011;2776;51.046;6.772;2022-07-11T08:56:07;2.03;;;1.30;;
5507;SDS011;2776;51.046;6.772;2022-07-11T08:58:35;1.95;;;1.30;;
5507;SDS011;2776;51.046;6.772;2022-07-11T09:01:03;1.52;;;1.30;;
5507;SDS011;2776;51.046;6.772;2022-07-11T09:03:31;1.83;;;1.60;;
5507;SDS011;2776;51.046;6.772;2022-07-11T09:05:59;1.63;;;1.30;;
5507;SDS011;2776;51.046;6.772;2022-07-11T09:08:28;1.65;;;1.42;;
5507;SDS011;2776;51.046;6.772;2022-07-11T09:10:56;1.98;;;1.80;;
5507;SDS011;2776;51.046;6.772;2022-07-11T09:13:26;3.40;;;1.35;;
5507;SDS011;2776;51.046;6.772;2022-07-11T09:16:00;2.00;;;1.20;;
5507;SDS011;2776;51.046;6.772;2022-07-11T09:18:34;1.98;;;1.33;;
5507;SDS011;2776;51.046;6.772;2022-07-11T09:21:03;1.65;;;1.48;;
5507;SDS011;2776;51.046;6.772;2022-07-11T09:23:50;3.53;;;1.13;;
5507;SDS011;2776;51.046;6.772;2022-07-11T09:26:36;1.98;;;1.42;;
5507;SDS011;2776;51.046;6.772;2022-07-11T09:29:06;2.95;;;1.30;;
5507;SDS011;2776;51.046;6.772;2022-07-11T09:31:35;2.50;;;1.10;;
5507;SDS011;2776;51.046;6.772;2022-07-11T09:34:04;1.45;;;1.00;;
5507;SDS011;2776;51.046;6.772;2022-07-11T09:36:40;1.50;;;1.10;;
5507;SDS011;2776;51.046;6.772;2022-07-11T09:39:11;1.20;;;1.10;;
5507;SDS011;2776;51.046;6.772;2022-07-11T09:41:39;1.58;;;1.30;;
5507;SDS011;2776;51.046;6.772;2022-07-11T09:44:10;1.52;;;1.20;;
5507;SDS011;2776;51.046;6.772;2022-07-11T09:46:38;1.30;;;1.20;;
5507;SDS011;2776;51.046;6.772;2022-07-11T09:49:05;2.00;;;1.33;;
5507;SDS011;2776;51.046;6.772;2022-07-11T09:51:32;3.35;;;1.13;;
5507;SDS011;2776;51.046;6.772;2022-07-11T09:54:00;2.03;;;1.27;;
5507;SDS011;2776;51.046;6.772;2022-07-11T09:56:34;2.05;;;0.98;;
5507;SDS011;2776;51.046;6.772;2022-07-11T09:59:04;2.13;;;1.08;;
5507;SDS011;2776;51.046;6.772;2022-07-11T10:01:31;2.55;;;1.20;;
5507;SDS011;2776;51.046;6.772;2022-07-11T10:03:59;1.40;;;1.15;;
5507;SDS011;2776;51.046;6.772;2022-07-11T10:06:25;3.08;;;1.08;;
5507;SDS011;2776;51.046;6.772;2022-07-11T10:08:53;1.10;;;1.00;;
5507;SDS011;2776;51.046;6.772;2022-07-11T10:11:20;3.97;;;2.25;;
5507;SDS011;2776;51.046;6.772;2022-07-11T10:13:48;3.15;;;1.40;;
5507;SDS011;2776;51.046;6.772;2022-07-11T10:16:32;3.15;;;0.98;;
5507;SDS011;2776;51.046;6.772;2022-07-11T10:19:10;1.92;;;1.00;;
5507;SDS011;2776;51.046;6.772;2022-07-11T10:21:44;1.48;;;0.90;;
5507;SDS011;2776;51.046;6.772;2022-07-11T10:24:21;2.80;;;0.80;;
5507;SDS011;2776;51.046;6.772;2022-07-11T10:26:56;1.48;;;0.73;;
5507;SDS011;2776;51.046;6.772;2022-07-11T10:29:29;1.88;;;0.77;;
5507;SDS011;2776;51.046;6.772;2022-07-11T10:32:04;2.03;;;0.95;;
5507;SDS011;2776;51.046;6.772;2022-07-11T10:34:32;1.38;;;1.00;;
5507;SDS011;2776;51.046;6.772;2022-07-11T10:36:59;1.88;;;1.00;;
5507;SDS011;2776;51.046;6.772;2022-07-11T10:39:28;1.67;;;1.02;;
5507;SDS011;2776;51.046;6.772;2022-07-11T10:41:55;4.68;;;1.10;;
5507;SDS011;2776;51.046;6.772;2022-07-11T10:44:23;1.42;;;1.00;;
5507;SDS011;2776;51.046;6.772;2022-07-11T10:46:52;1.80;;;1.38;;
5507;SDS011;2776;51.046;6.772;2022-07-11T10:49:22;2.58;;;1.10;;
5507;SDS011;2776;51.046;6.772;2022-07-11T10:52:03;1.80;;;0.98;;
5507;SDS011;2776;51.046;6.772;2022-07-11T10:54:36;2.08;;;1.30;;
5507;SDS011;2776;51.046;6.772;2022-07-11T10:57:17;3.78;;;2.20;;
5507;SDS011;2776;51.046;6.772;2022-07-11T10:59:55;4.07;;;1.20;;
5507;SDS011;2776;51.046;6.772;2022-07-11T11:02:26;1.92;;;1.30;;
5507;SDS011;2776;51.046;6.772;2022-07-11T11:04:53;1.90;;;1.48;;
5507;SDS011;2776;51.046;6.772;2022-07-11T11:13:17;1.02;;;0.93;;
5507;SDS011;2776;51.046;6.772;2022-07-11T11:15:46;1.58;;;1.23;;
5507;SDS011;2776;51.046;6.772;2022-07-11T11:18:32;1.40;;;1.20;;
5507;SDS011;2776;51.046;6.772;2022-07-11T11:21:16;3.38;;;1.40;;
5507;SDS011;2776;51.046;6.772;2022-07-11T11:26:50;1.05;;;0.82;;
5507;SDS011;2776;51.046;6.772;2022-07-11T11:29:18;4.72;;;2.17;;
5507;SDS011;2776;51.046;6.772;2022-07-11T11:31:50;1.90;;;1.55;;
5507;SDS011;2776;51.046;6.772;2022-07-11T11:34:19;3.30;;;1.90;;
5507;SDS011;2776;51.046;6.772;2022-07-11T11:36:51;3.17;;;1.73;;
5507;SDS011;2776;51.046;6.772;2022-07-11T11:39:26;2.78;;;1.98;;
5507;SDS011;2776;51.046;6.772;2022-07-11T11:42:00;1.67;;;1.30;;
5507;SDS011;2776;51.046;6.772;2022-07-11T11:44:29;1.83;;;1.50;;
5507;SDS011;2776;51.046;6.772;2022-07-11T11:46:56;3.05;;;2.10;;
5507;SDS011;2776;51.046;6.772;2022-07-11T11:49:24;2.15;;;1.85;;
5507;SDS011;2776;51.046;6.772;2022-07-11T11:51:53;4.10;;;3.80;;
5507;SDS011;2776;51.046;6.772;2022-07-11T11:54:20;3.20;;;3.00;;
5507;SDS011;2776;51.046;6.772;2022-07-11T11:56:49;3.30;;;2.67;;
5507;SDS011;2776;51.046;6.772;2022-07-11T11:59:16;3.22;;;3.03;;
5507;SDS011;2776;51.046;6.772;2022-07-11T12:01:43;4.60;;;2.67;;
5507;SDS011;2776;51.046;6.772;2022-07-11T12:04:11;3.30;;;3.05;;
5507;SDS011;2776;51.046;6.772;2022-07-11T12:06:41;5.85;;;3.17;;
5507;SDS011;2776;51.046;6.772;2022-07-11T12:09:09;3.47;;;3.17;;
5507;SDS011;2776;51.046;6.772;2022-07-11T12:11:37;2.20;;;1.58;;
5507;SDS011;2776;51.046;6.772;2022-07-11T12:14:05;3.03;;;2.15;;
5507;SDS011;2776;51.046;6.772;2022-07-11T12:16:33;1.52;;;1.42;;
5507;SDS011;2776;51.046;6.772;2022-07-11T12:19:08;3.58;;;3.28;;
5507;SDS011;2776;51.046;6.772;2022-07-11T12:21:37;2.88;;;1.15;;
5507;SDS011;2776;51.046;6.772;2022-07-11T12:24:08;1.60;;;1.27;;
5507;SDS011;2776;51.046;6.772;2022-07-11T12:26:37;1.75;;;1.33;;
5507;SDS011;2776;51.046;6.772;2022-07-11T12:29:06;2.80;;;2.55;;
5507;SDS011;2776;51.046;6.772;2022-07-11T12:31:42;3.03;;;1.80;;
5507;SDS011;2776;51.046;6.772;2022-07-11T12:34:11;0.98;;;0.88;;
5507;SDS011;2776;51.046;6.772;2022-07-11T12:36:38;3.03;;;2.72;;
5507;SDS011;2776;51.046;6.772;2022-07-11T12:39:06;2.60;;;1.70;;
5507;SDS011;2776;51.046;6.772;2022-07-11T12:41:33;1.88;;;1.55;;
5507;SDS011;2776;51.046;6.772;2022-07-11T12:44:01;3.25;;;2.60;;
5507;SDS011;2776;51.046;6.772;2022-07-11T12:46:45;3.00;;;2.67;;
5507;SDS011;2776;51.046;6.772;2022-07-11T12:49:13;3.00;;;2.70;;
5507;SDS011;2776;51.046;6.772;2022-07-11T12:51:41;2.55;;;2.25;;
5507;SDS011;2776;51.046;6.772;2022-07-11T12:54:11;2.38;;;2.03;;
5507;SDS011;2776;51.046;6.772;2022-07-11T12:56:39;4.28;;;3.95;;
5507;SDS011;2776;51.046;6.772;2022-07-11T12:59:17;4.55;;;2.80;;
5507;SDS011;2776;51.046;6.772;2022-07-11T13:01:53;2.70;;;2.50;;
5507;SDS011;2776;51.046;6.772;2022-07-11T13:04:32;4.90;;;3.00;;
5507;SDS011;2776;51.046;6.772;2022-07-11T13:07:18;2.58;;;2.38;;
5507;SDS011;2776;51.046;6.772;2022-07-11T13:10:05;3.08;;;2.80;;
5507;SDS011;2776;51.046;6.772;2022-07-11T13:12:33;4.13;;;3.72;;
5507;SDS011;2776;51.046;6.772;2022-07-11T13:15:00;3.65;;;2.72;;
5507;SDS011;2776;51.046;6.772;2022-07-11T13:17:35;5.50;;;5.10;;
5507;SDS011;2776;51.046;6.772;2022-07-11T13:20:03;9.02;;;8.32;;
5507;SDS011;2776;51.046;6.772;2022-07-11T13:22:30;6.43;;;5.93;;
5507;SDS011;2776;51.046;6.772;2022-07-11T13:24:57;7.25;;;6.65;;
5507;SDS011;2776;51.046;6.772;2022-07-11T13:27:25;7.80;;;7.20;;
5507;SDS011;2776;51.046;6.772;2022-07-11T13:29:52;7.32;;;6.72;;
5507;SDS011;2776;51.046;6.772;2022-07-11T13:32:19;8.77;;;7.93;;
5507;SDS011;2776;51.046;6.772;2022-07-11T13:34:45;6.63;;;6.03;;
5507;SDS011;2776;51.046;6.772;2022-07-11T13:37:14;6.82;;;6.32;;
5507;SDS011;2776;51.046;6.772;2022-07-11T13:39:40;11.68;;;10.38;;
5507;SDS011;2776;51.046;6.772;2022-07-11T13:42:07;10.65;;;9.85;;
5507;SDS011;2776;51.046;6.772;2022-07-11T13:44:36;10.52;;;9.45;;
5507;SDS011;2776;51.046;6.772;2022-07-11T13:47:03;10.90;;;9.90;;
5507;SDS011;2776;51.046;6.772;2022-07-11T13:49:29;9.98;;;9.18;;
5507;SDS011;2776;51.046;6.772;2022-07-11T13:51:56;12.02;;;11.02;;
5507;SDS011;2776;51.046;6.772;2022-07-11T13:54:23;12.38;;;11.38;;
5507;SDS011;2776;51.046;6.772;2022-07-11T13:56:50;14.43;;;13.23;;
5507;SDS011;2776;51.046;6.772;2022-07-11T13:59:17;14.98;;;13.50;;
5507;SDS011;2776;51.046;6.772;2022-07-11T14:01:46;15.50;;;14.20;;
5507;SDS011;2776;51.046;6.772;2022-07-11T14:04:13;10.80;;;9.88;;
5507;SDS011;2776;51.046;6.772;2022-07-11T14:06:40;8.40;;;7.70;;
5507;SDS011;2776;51.046;6.772;2022-07-11T14:09:07;5.15;;;4.20;;
5507;SDS011;2776;51.046;6.772;2022-07-11T14:11:34;4.60;;;4.10;;
5507;SDS011;2776;51.046;6.772;2022-07-11T14:14:01;4.47;;;3.92;;
5507;SDS011;2776;51.046;6.772;2022-07-11T14:16:28;3.85;;;3.53;;
5507;SDS011;2776;51.046;6.772;2022-07-11T14:18:57;4.32;;;3.75;;
5507;SDS011;2776;51.046;6.772;2022-07-11T14:21:25;4.47;;;4.07;;
5507;SDS011;2776;51.046;6.772;2022-07-11T14:23:53;3.53;;;3.20;;
5507;SDS011;2776;51.046;6.772;2022-07-11T14:26:20;2.10;;;1.90;;
5507;SDS011;2776;51.046;6.772;2022-07-11T14:28:47;7.10;;;6.40;;
5507;SDS011;2776;51.046;6.772;2022-07-11T14:31:14;3.85;;;2.20;;
5507;SDS011;2776;51.046;6.772;2022-07-11T14:33:41;5.32;;;4.93;;
5507;SDS011;2776;51.046;6.772;2022-07-11T14:36:09;4.15;;;3.75;;
5507;SDS011;2776;51.046;6.772;2022-07-11T14:38:36;2.70;;;2.50;;
5507;SDS011;2776;51.046;6.772;2022-07-11T14:41:04;2.95;;;2.75;;
5507;SDS011;2776;51.046;6.772;2022-07-11T14:43:31;1.92;;;1.30;;
5507;SDS011;2776;51.046;6.772;2022-07-11T14:45:58;1.42;;;1.17;;
5507;SDS011;2776;51.046;6.772;2022-07-11T14:48:25;1.80;;;1.70;;
5507;SDS011;2776;51.046;6.772;2022-07-11T14:50:52;2.08;;;1.10;;
5507;SDS011;2776;51.046;6.772;2022-07-11T14:53:20;1.98;;;1.85;;
5507;SDS011;2776;51.046;6.772;2022-07-11T14:55:47;2.05;;;1.73;;
5507;SDS011;2776;51.046;6.772;2022-07-11T14:58:14;0.82;;;0.50;;
5507;SDS011;2776;51.046;6.772;2022-07-11T15:00:41;0.95;;;0.75;;
5507;SDS011;2776;51.046;6.772;2022-07-11T15:03:09;4.18;;;0.90;;
5507;SDS011;2776;51.046;6.772;2022-07-11T15:05:53;0.63;;;0.60;;
5507;SDS011;2776;51.046;6.772;2022-07-11T15:08:21;2.58;;;0.80;;
5507;SDS011;2776;51.046;6.772;2022-07-11T15:11:05;2.97;;;1.90;;
5507;SDS011;2776;51.046;6.772;2022-07-11T15:13:50;0.75;;;0.75;;
5507;SDS011;2776;51.046;6.772;2022-07-11T15:16:17;2.17;;;1.25;;
5507;SDS011;2776;51.046;6.772;2022-07-11T15:18:44;2.42;;;1.63;;
5507;SDS011;2776;51.046;6.772;2022-07-11T15:21:11;1.25;;;1.15;;
5507;SDS011;2776;51.046;6.772;2022-07-11T15:23:39;2.80;;;2.60;;
5507;SDS011;2776;51.046;6.772;2022-07-11T15:26:06;3.38;;;3.08;;
5507;SDS011;2776;51.046;6.772;2022-07-11T15:28:33;5.65;;;5.07;;
5507;SDS011;2776;51.046;6.772;2022-07-11T15:31:00;5.90;;;5.35;;